createdAt,value
2023-06-27T00:00:47.879Z,38.65
2023-06-27T00:01:47.979Z,38.35
2023-06-27T00:02:48.079Z,38.04
2023-06-27T00:03:47.976Z,37.72
2023-06-27T00:04:47.955Z,37.68
2023-06-27T00:05:47.959Z,38.01
2023-06-27T00:06:48.079Z,38.24
2023-06-27T00:07:48.035Z,38.12
2023-06-27T00:08:48.085Z,38.07
2023-06-27T00:09:48.163Z,38.52
2023-06-27T00:10:48.203Z,38.56
2023-06-27T00:11:48.278Z,38.80
2023-06-27T00:12:48.284Z,38.74
2023-06-27T00:13:48.347Z,38.50
2023-06-27T00:14:48.438Z,38.52
2023-06-27T00:15:48.482Z,38.73
2023-06-27T00:16:48.566Z,39.29
2023-06-27T00:17:48.600Z,39.33
2023-06-27T00:18:48.655Z,39.26
2023-06-27T00:19:48.774Z,39.46
2023-06-27T00:20:48.746Z,39.65
2023-06-27T00:21:48.843Z,39.84
2023-06-27T00:22:48.846Z,39.78
2023-06-27T00:23:48.883Z,39.86
2023-06-27T00:24:49.061Z,39.68
2023-06-27T00:25:49.043Z,39.68
2023-06-27T00:26:49.068Z,39.96
2023-06-27T00:27:49.180Z,39.99
2023-06-27T00:28:49.224Z,40.04
2023-06-27T00:29:49.286Z,40.28
2023-06-27T00:30:49.357Z,40.96
2023-06-27T00:31:49.524Z,41.39
2023-06-27T00:32:49.505Z,41.38
2023-06-27T00:33:49.546Z,41.28
2023-06-27T00:34:49.546Z,41.09
2023-06-27T00:35:49.606Z,41.05
2023-06-27T00:36:49.643Z,41.10
2023-06-27T00:37:49.650Z,41.00
2023-06-27T00:38:49.688Z,40.97
2023-06-27T00:39:49.718Z,41.27
2023-06-27T00:40:49.710Z,41.20
2023-06-27T00:41:49.819Z,41.88
2023-06-27T00:42:49.856Z,42.24
2023-06-27T00:43:49.872Z,41.82
2023-06-27T00:44:49.901Z,41.91
2023-06-27T00:45:49.930Z,41.87
2023-06-27T00:46:49.976Z,41.71
2023-06-27T00:47:50.003Z,41.98
2023-06-27T00:48:49.989Z,41.85
2023-06-27T00:49:50.029Z,41.85
2023-06-27T00:50:50.093Z,41.92
2023-06-27T00:51:50.114Z,41.68
2023-06-27T00:52:50.134Z,42.16
2023-06-27T00:53:50.185Z,41.74
2023-06-27T00:54:50.196Z,41.60
2023-06-27T00:55:50.191Z,41.48
2023-06-27T00:56:50.239Z,41.73
2023-06-27T00:57:50.316Z,41.90
2023-06-27T00:58:50.308Z,42.03
2023-06-27T00:59:50.341Z,42.87
2023-06-27T01:00:50.380Z,42.65
2023-06-27T01:01:50.438Z,42.45
2023-06-27T01:02:50.543Z,41.98
2023-06-27T01:03:50.535Z,42.06
2023-06-27T01:04:50.533Z,42.33
2023-06-27T01:05:50.557Z,42.01
2023-06-27T01:06:50.691Z,42.23
2023-06-27T01:07:50.645Z,42.02
2023-06-27T01:08:50.684Z,42.14
2023-06-27T01:09:50.750Z,42.19
2023-06-27T01:10:50.770Z,42.56
2023-06-27T01:11:50.831Z,42.39
2023-06-27T01:12:50.874Z,42.20
2023-06-27T01:13:50.913Z,42.45
2023-06-27T01:14:50.944Z,42.28
2023-06-27T01:15:50.967Z,42.67
2023-06-27T01:16:51.001Z,42.95
2023-06-27T01:17:51.108Z,42.98
2023-06-27T01:18:51.066Z,43.11
2023-06-27T01:19:51.114Z,42.48
2023-06-27T01:20:51.192Z,42.17
2023-06-27T01:21:51.244Z,42.42
2023-06-27T01:22:51.262Z,42.53
2023-06-27T01:23:51.273Z,42.83
2023-06-27T01:24:51.363Z,43.08
2023-06-27T01:25:51.409Z,43.29
2023-06-27T01:26:51.416Z,43.06
2023-06-27T01:27:51.440Z,43.06
2023-06-27T01:28:51.505Z,43.14
2023-06-27T01:29:51.567Z,43.06
2023-06-27T01:30:51.561Z,42.71
2023-06-27T01:31:51.722Z,42.80
2023-06-27T01:32:51.639Z,42.68
2023-06-27T01:33:51.680Z,42.98
2023-06-27T01:34:51.734Z,43.56
2023-06-27T01:35:51.714Z,43.42
2023-06-27T01:36:51.832Z,42.98
2023-06-27T01:37:51.826Z,42.41
2023-06-27T01:38:51.815Z,42.34
2023-06-27T01:39:51.836Z,41.96
2023-06-27T01:40:51.891Z,41.09
2023-06-27T01:41:52.027Z,40.92
2023-06-27T01:42:51.954Z,40.89
2023-06-27T01:43:51.968Z,41.14
2023-06-27T01:44:52.099Z,41.20
2023-06-27T01:45:52.289Z,41.17
2023-06-27T01:46:52.281Z,41.40
2023-06-27T01:47:52.374Z,41.70
2023-06-27T01:48:52.407Z,41.68
2023-06-27T01:49:52.746Z,41.58
2023-06-27T01:50:52.474Z,41.90
2023-06-27T01:51:53.157Z,42.12
2023-06-27T01:52:52.562Z,41.85
2023-06-27T01:53:52.586Z,41.79
2023-06-27T01:54:52.692Z,41.85
2023-06-27T01:55:52.701Z,41.98
2023-06-27T01:56:52.788Z,42.13
2023-06-27T01:57:52.782Z,42.22
2023-06-27T01:58:52.822Z,42.41
2023-06-27T01:59:52.905Z,42.42
2023-06-27T02:00:52.983Z,42.25
2023-06-27T02:01:52.959Z,42.66
2023-06-27T02:02:53.083Z,43.36
2023-06-27T02:03:53.033Z,43.31
2023-06-27T02:04:53.112Z,43.34
2023-06-27T02:05:53.192Z,42.67
2023-06-27T02:06:53.292Z,42.47
2023-06-27T02:07:53.259Z,42.34
2023-06-27T02:08:53.351Z,42.46
2023-06-27T02:09:53.392Z,42.29
2023-06-27T02:10:53.406Z,42.20
2023-06-27T02:11:53.459Z,42.19
2023-06-27T02:12:53.489Z,42.30
2023-06-27T02:13:53.538Z,42.16
2023-06-27T02:14:53.581Z,42.41
2023-06-27T02:15:53.615Z,42.60
2023-06-27T02:16:53.622Z,43.50
2023-06-27T02:17:53.666Z,43.33
2023-06-27T02:18:53.691Z,43.26
2023-06-27T02:19:53.715Z,43.48
2023-06-27T02:20:53.682Z,43.47
2023-06-27T02:21:53.710Z,43.26
2023-06-27T02:22:53.672Z,43.39
2023-06-27T02:23:53.672Z,43.09
2023-06-27T02:24:53.676Z,42.91
2023-06-27T02:25:53.687Z,42.86
2023-06-27T02:26:53.645Z,42.77
2023-06-27T02:27:53.670Z,42.93
2023-06-27T02:28:53.676Z,42.95
2023-06-27T02:29:53.768Z,43.09
2023-06-27T02:30:53.825Z,43.14
2023-06-27T02:31:53.771Z,43.24
2023-06-27T02:32:53.790Z,43.33
2023-06-27T02:33:53.737Z,43.69
2023-06-27T02:34:53.869Z,43.09
2023-06-27T02:35:53.947Z,42.83
2023-06-27T02:36:54.068Z,42.49
2023-06-27T02:37:54.089Z,42.50
2023-06-27T02:38:54.095Z,42.40
2023-06-27T02:39:54.102Z,42.28
2023-06-27T02:40:54.059Z,42.13
2023-06-27T02:41:54.162Z,41.97
2023-06-27T02:42:54.128Z,42.15
2023-06-27T02:43:54.106Z,42.90
2023-06-27T02:44:54.131Z,42.43
2023-06-27T02:45:54.137Z,41.25
2023-06-27T02:46:54.245Z,41.24
2023-06-27T02:47:54.250Z,41.44
2023-06-27T02:48:54.216Z,42.19
2023-06-27T02:49:54.261Z,42.53
2023-06-27T02:50:54.266Z,42.19
2023-06-27T02:51:54.268Z,41.42
2023-06-27T02:52:54.291Z,41.85
2023-06-27T02:53:54.286Z,41.79
2023-06-27T02:54:54.317Z,41.78
2023-06-27T02:55:54.368Z,41.91
2023-06-27T02:56:54.445Z,42.36
2023-06-27T02:57:54.522Z,41.96
2023-06-27T02:58:54.647Z,42.13
2023-06-27T02:59:54.696Z,42.26
2023-06-27T03:00:54.679Z,42.60
2023-06-27T03:01:54.715Z,42.98
2023-06-27T03:02:54.828Z,43.16
2023-06-27T03:04:09.254Z,43.11
2023-06-27T03:04:55.741Z,43.02
2023-06-27T03:05:54.718Z,43.09
2023-06-27T03:06:54.846Z,42.96
2023-06-27T03:07:54.735Z,43.10
2023-06-27T03:08:54.726Z,43.35
2023-06-27T03:09:54.734Z,43.53
2023-06-27T03:10:54.704Z,43.46
2023-06-27T03:11:54.757Z,42.13
2023-06-27T03:12:54.661Z,41.32
2023-06-27T03:13:54.698Z,41.22
2023-06-27T03:14:54.679Z,41.44
2023-06-27T03:15:54.697Z,40.93
2023-06-27T03:16:54.697Z,40.68
2023-06-27T03:17:54.713Z,39.68
2023-06-27T03:18:54.638Z,39.64
2023-06-27T03:19:54.657Z,39.53
2023-06-27T03:20:54.609Z,39.36
2023-06-27T03:21:54.658Z,39.15
2023-06-27T03:22:54.626Z,39.29
2023-06-27T03:23:54.635Z,39.71
2023-06-27T03:24:54.628Z,38.98
2023-06-27T03:25:54.584Z,38.84
2023-06-27T03:26:54.608Z,39.07
2023-06-27T03:27:54.613Z,39.13
2023-06-27T03:28:54.600Z,39.47
2023-06-27T03:29:54.585Z,39.58
2023-06-27T03:30:54.567Z,38.69
2023-06-27T03:31:54.640Z,38.67
2023-06-27T03:32:54.634Z,38.13
2023-06-27T03:33:54.552Z,38.36
2023-06-27T03:34:54.524Z,38.53
2023-06-27T03:35:54.529Z,38.09
2023-06-27T03:36:54.539Z,37.85
2023-06-27T03:37:54.507Z,37.98
2023-06-27T03:38:54.498Z,37.97
2023-06-27T03:39:54.589Z,37.95
2023-06-27T03:40:54.594Z,38.45
2023-06-27T03:41:54.639Z,38.55
2023-06-27T03:42:54.652Z,38.64
2023-06-27T03:43:54.734Z,38.73
2023-06-27T03:44:54.777Z,37.82
2023-06-27T03:45:54.815Z,37.79
2023-06-27T03:46:54.885Z,37.92
2023-06-27T03:47:54.961Z,37.86
2023-06-27T03:48:54.993Z,38.00
2023-06-27T03:49:55.045Z,38.14
2023-06-27T03:50:55.069Z,38.26
2023-06-27T03:51:55.119Z,38.40
2023-06-27T03:52:55.147Z,39.54
2023-06-27T03:53:55.154Z,40.31
2023-06-27T03:54:55.238Z,40.43
2023-06-27T03:55:55.247Z,40.62
2023-06-27T03:56:55.295Z,40.83
2023-06-27T03:57:55.329Z,41.30
2023-06-27T03:58:55.329Z,41.50
2023-06-27T03:59:55.361Z,41.69
2023-06-27T04:00:55.432Z,41.36
2023-06-27T04:01:55.406Z,41.08
2023-06-27T04:02:55.492Z,40.85
2023-06-27T04:03:55.696Z,41.10
2023-06-27T04:04:55.711Z,40.95
2023-06-27T04:05:55.545Z,38.24
2023-06-27T04:06:55.611Z,38.10
2023-06-27T04:07:55.578Z,37.39
2023-06-27T04:08:55.609Z,37.53
2023-06-27T04:09:55.685Z,36.57
2023-06-27T04:10:55.653Z,36.50
2023-06-27T04:11:55.647Z,36.68
2023-06-27T04:12:55.690Z,36.98
2023-06-27T04:13:55.774Z,37.00
2023-06-27T04:14:55.767Z,36.43
2023-06-27T04:15:55.759Z,36.41
2023-06-27T04:16:55.884Z,36.95
2023-06-27T04:17:55.872Z,36.63
2023-06-27T04:18:55.821Z,37.01
2023-06-27T04:19:55.897Z,37.38
2023-06-27T04:20:55.945Z,37.34
2023-06-27T04:21:56.060Z,37.17
2023-06-27T04:22:56.069Z,36.92
2023-06-27T04:23:56.115Z,37.17
2023-06-27T04:24:56.184Z,37.26
2023-06-27T04:25:56.218Z,36.16
2023-06-27T04:26:56.238Z,36.63
2023-06-27T04:27:56.268Z,36.41
2023-06-27T04:28:56.262Z,36.19
2023-06-27T04:29:56.276Z,36.33
2023-06-27T04:30:56.302Z,35.99
2023-06-27T04:31:56.273Z,36.07
2023-06-27T04:32:56.307Z,35.38
2023-06-27T04:33:56.357Z,35.59
2023-06-27T04:34:56.308Z,35.20
2023-06-27T04:35:56.304Z,35.16
2023-06-27T04:36:56.372Z,35.05
2023-06-27T04:37:56.402Z,34.87
2023-06-27T04:38:56.435Z,35.00
2023-06-27T04:39:56.462Z,35.38
2023-06-27T04:40:56.517Z,35.70
2023-06-27T04:41:56.549Z,35.09
2023-06-27T04:42:56.609Z,34.84
2023-06-27T04:43:56.584Z,34.93
2023-06-27T04:44:56.603Z,35.04
2023-06-27T04:45:56.647Z,35.07
2023-06-27T04:46:56.690Z,35.50
2023-06-27T04:47:56.801Z,35.58
2023-06-27T04:48:56.648Z,35.91
2023-06-27T04:49:56.723Z,36.36
2023-06-27T04:50:56.729Z,36.65
2023-06-27T04:51:56.779Z,35.93
2023-06-27T04:52:56.790Z,36.06
2023-06-27T04:53:56.828Z,35.66
2023-06-27T04:54:56.860Z,35.49
2023-06-27T04:55:56.877Z,35.42
2023-06-27T04:57:08.433Z,35.43
2023-06-27T04:57:57.886Z,35.40
2023-06-27T04:58:56.884Z,35.25
2023-06-27T04:59:56.916Z,35.73
2023-06-27T05:02:16.036Z,35.54
2023-06-27T05:03:16.174Z,35.75
2023-06-27T05:04:16.000Z,35.54
2023-06-27T05:05:16.135Z,34.95
2023-06-27T05:06:16.036Z,35.40
2023-06-27T05:07:16.055Z,35.54
2023-06-27T05:08:15.996Z,34.98
2023-06-27T05:09:15.990Z,34.55
2023-06-27T05:10:16.019Z,34.87
2023-06-27T05:11:16.018Z,35.31
2023-06-27T05:12:16.003Z,34.98
2023-06-27T05:13:16.011Z,35.28
2023-06-27T05:14:15.952Z,35.79
2023-06-27T05:15:15.966Z,35.92
2023-06-27T05:16:15.959Z,35.56
2023-06-27T05:17:15.945Z,35.17
2023-06-27T05:18:15.926Z,35.26
2023-06-27T05:19:15.930Z,35.45
2023-06-27T05:20:15.909Z,35.97
2023-06-27T05:21:15.921Z,35.64
2023-06-27T05:22:15.918Z,35.77
2023-06-27T05:23:15.964Z,35.32
2023-06-27T05:24:15.909Z,35.88
2023-06-27T05:25:15.915Z,35.70
2023-06-27T05:26:15.903Z,35.88
2023-06-27T05:27:16.042Z,35.28
2023-06-27T05:28:15.909Z,35.67
2023-06-27T05:29:15.849Z,36.00
2023-06-27T05:30:15.866Z,35.93
2023-06-27T05:31:15.873Z,35.55
2023-06-27T05:32:16.218Z,35.21
2023-06-27T05:33:15.864Z,35.44
2023-06-27T05:34:15.893Z,35.77
2023-06-27T05:35:15.842Z,36.13
2023-06-27T05:36:15.804Z,36.14
2023-06-27T05:37:16.231Z,35.87
2023-06-27T05:38:15.855Z,34.89
2023-06-27T05:39:15.797Z,35.03
2023-06-27T05:40:15.787Z,35.56
2023-06-27T05:41:15.830Z,35.86
2023-06-27T05:42:16.258Z,36.04
2023-06-27T05:43:15.808Z,36.56
2023-06-27T05:44:15.816Z,36.59
2023-06-27T05:45:18.457Z,36.28
2023-06-27T05:47:35.130Z,35.75
2023-06-27T05:48:34.911Z,36.02
2023-06-27T05:49:34.877Z,36.25
2023-06-27T05:50:35.222Z,36.53
2023-06-27T05:51:34.987Z,36.41
2023-06-27T05:52:35.169Z,36.78
2023-06-27T05:53:34.892Z,36.28
2023-06-27T05:54:34.885Z,36.70
2023-06-27T05:55:34.863Z,36.46
2023-06-27T05:56:34.784Z,36.17
2023-06-27T05:57:35.413Z,36.52
2023-06-27T05:58:34.825Z,36.74
2023-06-27T05:59:34.817Z,36.27
2023-06-27T06:00:35.293Z,36.16
2023-06-27T06:01:35.342Z,36.30
2023-06-27T06:02:36.674Z,36.14
2023-06-27T06:03:34.901Z,36.48
2023-06-27T06:04:34.883Z,36.70
2023-06-27T06:05:34.936Z,36.61
2023-06-27T06:06:34.762Z,36.24
2023-06-27T06:07:35.116Z,36.65
2023-06-27T06:08:34.734Z,36.44
2023-06-27T06:09:34.876Z,36.05
2023-06-27T06:10:34.769Z,35.30
2023-06-27T06:11:34.786Z,35.79
2023-06-27T06:12:35.188Z,36.17
2023-06-27T06:13:35.088Z,36.35
2023-06-27T06:14:34.805Z,36.40
2023-06-27T06:15:34.723Z,36.59
2023-06-27T06:16:34.691Z,37.18
2023-06-27T06:17:35.268Z,36.65
2023-06-27T06:18:34.729Z,36.79
2023-06-27T06:19:34.722Z,36.69
2023-06-27T06:20:34.664Z,36.03
2023-06-27T06:21:34.675Z,36.26
2023-06-27T06:22:35.106Z,36.63
2023-06-27T06:23:34.676Z,36.72
2023-06-27T06:24:34.645Z,36.31
2023-06-27T06:25:34.688Z,36.55
2023-06-27T06:26:34.663Z,36.15
2023-06-27T06:27:35.133Z,36.10
2023-06-27T06:28:34.593Z,36.21
2023-06-27T06:29:34.602Z,34.86
2023-06-27T06:30:34.612Z,35.11
2023-06-27T06:31:34.673Z,35.17
2023-06-27T06:32:35.873Z,35.07
2023-06-27T06:33:34.603Z,35.24
2023-06-27T06:34:34.578Z,35.12
2023-06-27T06:35:34.580Z,35.70
2023-06-27T06:36:34.550Z,34.81
2023-06-27T06:37:34.646Z,35.62
2023-06-27T06:38:34.572Z,35.15
2023-06-27T06:39:34.503Z,35.32
2023-06-27T06:40:34.570Z,34.93
2023-06-27T06:41:34.577Z,35.17
2023-06-27T06:42:34.566Z,35.55
2023-06-27T06:43:34.576Z,35.60
2023-06-27T06:44:35.107Z,35.03
2023-06-27T06:45:34.515Z,35.61
2023-06-27T06:46:34.583Z,34.65
2023-06-27T06:47:34.538Z,35.14
2023-06-27T06:48:34.580Z,35.15
2023-06-27T06:49:34.510Z,35.11
2023-06-27T06:50:34.528Z,35.65
2023-06-27T06:51:34.469Z,35.53
2023-06-27T06:52:34.488Z,35.84
2023-06-27T06:53:34.605Z,35.64
2023-06-27T06:54:34.476Z,35.94
2023-06-27T06:55:34.438Z,35.71
2023-06-27T06:56:34.527Z,35.74
2023-06-27T06:57:34.518Z,35.77
2023-06-27T06:58:34.566Z,35.61
2023-06-27T06:59:34.608Z,36.41
2023-06-27T07:00:34.652Z,36.45
2023-06-27T07:01:34.706Z,36.24
2023-06-27T07:02:34.871Z,36.27
2023-06-27T07:03:35.180Z,36.61
2023-06-27T07:04:34.947Z,36.27
2023-06-27T07:05:34.855Z,36.96
2023-06-27T07:06:34.879Z,37.26
2023-06-27T07:07:34.921Z,36.71
2023-06-27T07:08:34.982Z,36.75
2023-06-27T07:09:36.262Z,36.49
2023-06-27T07:10:35.088Z,37.00
2023-06-27T07:11:35.025Z,36.91
2023-06-27T07:12:35.078Z,37.41
2023-06-27T07:13:35.160Z,37.07
2023-06-27T07:14:35.189Z,37.59
2023-06-27T07:15:35.148Z,37.89
2023-06-27T07:16:35.158Z,38.29
2023-06-27T07:17:35.239Z,38.53
2023-06-27T07:18:35.574Z,37.93
2023-06-27T07:19:35.337Z,37.96
2023-06-27T07:20:35.339Z,37.72
2023-06-27T07:21:35.464Z,37.76
2023-06-27T07:22:35.467Z,37.69
2023-06-27T07:23:35.970Z,38.64
2023-06-27T07:24:35.575Z,38.91
2023-06-27T07:25:35.528Z,38.40
2023-06-27T07:26:35.712Z,38.63
2023-06-27T07:27:35.595Z,39.32
2023-06-27T07:28:35.612Z,39.00
2023-06-27T07:29:35.614Z,40.14
2023-06-27T07:30:35.626Z,39.40
2023-06-27T07:31:35.716Z,39.61
2023-06-27T07:32:35.741Z,39.39
2023-06-27T07:33:36.242Z,39.52
2023-06-27T07:34:35.761Z,39.47
2023-06-27T07:35:35.760Z,39.30
2023-06-27T07:36:35.805Z,39.18
2023-06-27T07:37:35.867Z,39.27
2023-06-27T07:38:36.180Z,39.56
2023-06-27T07:39:35.813Z,39.39
2023-06-27T07:40:35.897Z,39.46
2023-06-27T07:41:35.967Z,39.57
2023-06-27T07:42:35.939Z,39.53
2023-06-27T07:43:36.205Z,39.60
2023-06-27T07:44:35.947Z,40.69
2023-06-27T07:45:35.954Z,39.62
2023-06-27T07:46:36.040Z,40.26
2023-06-27T07:47:36.105Z,41.12
2023-06-27T07:48:36.088Z,41.05
2023-06-27T07:49:36.187Z,41.04
2023-06-27T07:50:36.163Z,40.48
2023-06-27T07:51:36.170Z,40.80
2023-06-27T07:52:36.254Z,40.40
2023-06-27T07:53:36.642Z,40.68
2023-06-27T07:54:36.323Z,40.93
2023-06-27T07:55:36.667Z,40.27
2023-06-27T07:56:36.365Z,40.27
2023-06-27T07:57:36.430Z,39.92
2023-06-27T07:58:36.637Z,40.64
2023-06-27T07:59:36.362Z,40.63
2023-06-27T08:00:36.476Z,41.34
2023-06-27T08:01:36.536Z,40.50
2023-06-27T08:02:36.608Z,39.94
2023-06-27T08:03:37.217Z,40.17
2023-06-27T08:04:36.672Z,40.03
2023-06-27T08:05:36.593Z,40.43
2023-06-27T08:06:36.641Z,39.74
2023-06-27T08:07:36.801Z,40.08
2023-06-27T08:08:36.632Z,40.66
2023-06-27T08:09:37.162Z,40.32
2023-06-27T08:10:36.700Z,40.14
2023-06-27T08:11:36.737Z,40.18
2023-06-27T08:12:36.735Z,39.62
2023-06-27T08:13:36.817Z,39.65
2023-06-27T08:14:36.796Z,40.03
2023-06-27T08:15:36.804Z,39.25
2023-06-27T08:16:36.867Z,39.61
2023-06-27T08:17:37.585Z,39.66
2023-06-27T08:18:37.034Z,39.35
2023-06-27T08:19:36.815Z,39.49
2023-06-27T08:20:36.907Z,39.42
2023-06-27T08:21:37.507Z,39.41
2023-06-27T08:22:36.949Z,39.32
2023-06-27T08:23:37.002Z,39.47
2023-06-27T08:24:37.197Z,39.47
2023-06-27T08:25:37.188Z,39.38
2023-06-27T08:26:37.140Z,38.79
2023-06-27T08:27:37.184Z,38.40
2023-06-27T08:28:37.172Z,38.63
2023-06-27T08:29:37.251Z,38.74
2023-06-27T08:30:37.339Z,38.78
2023-06-27T08:31:37.290Z,38.66
2023-06-27T08:32:37.407Z,38.66
2023-06-27T08:33:37.387Z,38.99
2023-06-27T08:34:37.624Z,38.95
2023-06-27T08:35:37.442Z,38.98
2023-06-27T08:36:37.521Z,38.90
2023-06-27T08:37:37.524Z,38.72
2023-06-27T08:38:37.600Z,38.55
2023-06-27T08:39:37.563Z,38.48
2023-06-27T08:40:38.140Z,39.29
2023-06-27T08:41:37.640Z,38.71
2023-06-27T08:42:37.678Z,39.11
2023-06-27T08:43:37.698Z,38.37
2023-06-27T08:44:38.166Z,38.63
2023-06-27T08:45:37.728Z,38.64
2023-06-27T08:46:37.762Z,38.71
2023-06-27T08:47:37.816Z,38.50
2023-06-27T08:48:37.727Z,38.37
2023-06-27T08:49:38.413Z,38.50
2023-06-27T08:50:38.681Z,38.54
2023-06-27T08:51:39.002Z,38.68
2023-06-27T08:52:37.704Z,39.02
2023-06-27T08:53:37.775Z,39.04
2023-06-27T08:54:38.171Z,38.32
2023-06-27T08:55:37.688Z,38.65
2023-06-27T08:56:37.666Z,38.65
2023-06-27T08:57:37.646Z,39.06
2023-06-27T08:58:37.715Z,38.49
2023-06-27T08:59:37.824Z,38.59
2023-06-27T09:00:37.884Z,40.17
2023-06-27T09:01:37.872Z,39.79
2023-06-27T09:02:37.907Z,39.11
2023-06-27T09:03:39.162Z,39.44
2023-06-27T09:04:38.026Z,40.49
2023-06-27T09:05:40.271Z,40.11
2023-06-27T09:06:38.184Z,39.69
2023-06-27T09:07:38.189Z,40.20
2023-06-27T09:08:38.157Z,40.62
2023-06-27T09:09:38.650Z,40.17
2023-06-27T09:10:38.711Z,40.17
2023-06-27T09:11:38.213Z,40.15
2023-06-27T09:12:38.299Z,39.28
2023-06-27T09:13:38.321Z,39.71
2023-06-27T09:14:38.685Z,40.20
2023-06-27T09:15:38.658Z,39.60
2023-06-27T09:16:38.580Z,39.65
2023-06-27T09:17:38.485Z,39.43
2023-06-27T09:18:38.459Z,40.35
2023-06-27T09:19:38.694Z,40.15
2023-06-27T09:20:38.917Z,40.28
2023-06-27T09:21:38.616Z,40.32
2023-06-27T09:22:39.532Z,40.24
2023-06-27T09:23:38.671Z,39.87
2023-06-27T09:24:38.736Z,39.97
2023-06-27T09:25:39.197Z,40.26
2023-06-27T09:26:38.803Z,40.45
2023-06-27T09:27:38.814Z,39.89
2023-06-27T09:28:38.897Z,40.04
2023-06-27T09:29:40.944Z,39.78
2023-06-27T09:30:39.124Z,39.63
2023-06-27T09:31:39.030Z,39.86
2023-06-27T09:32:39.022Z,39.32
2023-06-27T09:33:43.039Z,39.35
2023-06-27T09:34:39.240Z,39.47
2023-06-27T09:39:39.078Z,38.50
2023-06-27T09:40:39.043Z,38.43
2023-06-27T09:41:38.910Z,39.07
2023-06-27T09:42:38.919Z,38.86
2023-06-27T09:43:38.917Z,38.62
2023-06-27T09:44:39.162Z,39.30
2023-06-27T09:45:39.255Z,39.30
2023-06-27T09:46:39.338Z,38.76
2023-06-27T09:47:38.861Z,38.94
2023-06-27T09:48:38.846Z,39.27
2023-06-27T09:49:39.122Z,39.16
2023-06-27T09:50:38.935Z,39.57
2023-06-27T09:51:39.092Z,39.07
2023-06-27T09:52:38.966Z,38.60
2023-06-27T09:53:38.960Z,38.38
2023-06-27T09:54:39.184Z,38.33
2023-06-27T09:55:39.065Z,38.62
2023-06-27T09:56:38.833Z,38.91
2023-06-27T09:57:38.824Z,39.19
2023-06-27T09:58:38.936Z,38.35
2023-06-27T09:59:38.802Z,38.52
2023-06-27T10:00:39.160Z,38.93
2023-06-27T10:01:38.785Z,38.78
2023-06-27T10:02:38.795Z,39.13
2023-06-27T10:03:39.185Z,39.15
2023-06-27T10:04:40.585Z,39.52
2023-06-27T10:05:45.437Z,39.92
2023-06-27T10:06:39.839Z,38.80
2023-06-27T10:07:38.842Z,38.86
2023-06-27T10:08:39.161Z,39.49
2023-06-27T10:09:38.878Z,39.54
2023-06-27T10:10:39.335Z,39.20
2023-06-27T10:11:38.934Z,39.30
2023-06-27T10:12:39.398Z,41.01
2023-06-27T10:13:38.949Z,39.81
2023-06-27T10:14:38.997Z,39.82
2023-06-27T10:15:39.707Z,39.82
2023-06-27T10:16:39.112Z,40.10
2023-06-27T10:17:39.932Z,40.34
2023-06-27T10:18:39.129Z,39.47
2023-06-27T10:19:39.167Z,39.53
2023-06-27T10:20:39.760Z,40.30
2023-06-27T10:21:39.181Z,41.20
2023-06-27T10:22:39.310Z,40.51
2023-06-27T10:23:39.789Z,40.90
2023-06-27T10:24:41.568Z,40.85
2023-06-27T10:25:39.736Z,40.40
2023-06-27T10:26:39.270Z,40.14
2023-06-27T10:27:39.294Z,39.66
2023-06-27T10:28:39.321Z,40.35
2023-06-27T10:29:39.320Z,41.38
2023-06-27T10:30:39.351Z,39.51
2023-06-27T10:31:39.270Z,40.10
2023-06-27T10:32:39.305Z,39.01
2023-06-27T10:33:39.282Z,39.42
2023-06-27T10:34:39.257Z,38.99
2023-06-27T10:35:39.655Z,38.90
2023-06-27T10:36:39.231Z,39.20
2023-06-27T10:37:39.210Z,38.77
2023-06-27T10:38:39.227Z,39.03
2023-06-27T10:39:39.219Z,39.50
2023-06-27T10:40:39.670Z,39.06
2023-06-27T10:41:39.294Z,38.62
2023-06-27T10:42:39.173Z,38.96
2023-06-27T10:43:39.186Z,38.77
2023-06-27T10:44:39.191Z,38.32
2023-06-27T10:45:39.820Z,38.45
2023-06-27T10:46:39.195Z,38.59
2023-06-27T10:47:39.236Z,38.66
2023-06-27T10:48:39.170Z,38.91
2023-06-27T10:49:39.199Z,38.88
2023-06-27T10:50:39.195Z,38.36
2023-06-27T10:51:40.127Z,38.81
2023-06-27T10:52:39.149Z,38.93
2023-06-27T10:53:39.140Z,38.73
2023-06-27T10:54:39.136Z,39.62
2023-06-27T10:55:39.176Z,38.29
2023-06-27T10:56:39.096Z,38.22
2023-06-27T10:57:39.114Z,38.45
2023-06-27T10:58:39.096Z,39.33
2023-06-27T10:59:39.802Z,38.35
2023-06-27T11:00:39.185Z,39.34
2023-06-27T11:01:39.085Z,38.25
2023-06-27T11:02:39.259Z,38.51
2023-06-27T11:03:39.328Z,39.60
2023-06-27T11:04:39.217Z,39.26
2023-06-27T11:05:39.070Z,39.58
2023-06-27T11:06:39.061Z,39.24
2023-06-27T11:07:39.035Z,39.42
2023-06-27T11:08:39.037Z,39.74
2023-06-27T11:09:39.059Z,39.09
2023-06-27T11:10:39.179Z,38.36
2023-06-27T11:11:38.970Z,39.10
2023-06-27T11:12:39.009Z,38.84
2023-06-27T11:13:38.986Z,38.61
2023-06-27T11:14:39.086Z,40.58
2023-06-27T11:15:40.918Z,40.19
2023-06-27T11:16:39.122Z,40.37
2023-06-27T11:17:39.089Z,39.31
2023-06-27T11:18:39.224Z,38.21
2023-06-27T11:19:39.083Z,38.23
2023-06-27T11:20:39.885Z,37.79
2023-06-27T11:21:39.175Z,38.79
2023-06-27T11:22:39.167Z,39.21
2023-06-27T11:23:39.174Z,38.98
2023-06-27T11:24:39.283Z,38.30
2023-06-27T11:25:39.286Z,38.02
2023-06-27T11:26:39.291Z,38.98
2023-06-27T11:27:39.289Z,38.34
2023-06-27T11:28:39.296Z,39.25
2023-06-27T11:29:39.392Z,39.80
2023-06-27T11:30:39.998Z,39.68
2023-06-27T11:31:39.788Z,38.22
2023-06-27T11:32:41.314Z,38.71
2023-06-27T11:33:39.770Z,39.12
2023-06-27T11:34:39.633Z,37.33
2023-06-27T11:35:41.030Z,37.32
2023-06-27T11:36:40.163Z,36.80
2023-06-27T11:37:39.697Z,36.95
2023-06-27T11:38:39.759Z,36.87
2023-06-27T11:39:39.892Z,37.37
2023-06-27T11:41:40.707Z,37.41
2023-06-27T11:42:39.831Z,38.34
2023-06-27T11:43:39.826Z,38.92
2023-06-27T11:44:39.838Z,38.28
2023-06-27T11:45:39.813Z,38.37
2023-06-27T11:46:39.849Z,37.92
2023-06-27T11:47:39.865Z,37.60
2023-06-27T11:48:39.780Z,37.63
2023-06-27T11:49:39.795Z,37.16
2023-06-27T11:50:39.968Z,37.44
2023-06-27T11:51:39.804Z,37.78
2023-06-27T11:52:39.762Z,38.15
2023-06-27T11:53:39.791Z,37.61
2023-06-27T11:54:39.788Z,37.48
2023-06-27T11:55:39.741Z,37.24
2023-06-27T11:56:39.798Z,37.20
2023-06-27T11:57:39.747Z,37.94
2023-06-27T11:58:39.770Z,38.37
2023-06-27T11:59:39.737Z,37.49
2023-06-27T12:00:39.839Z,36.71
2023-06-27T12:01:39.786Z,37.35
2023-06-27T12:02:39.738Z,37.53
2023-06-27T12:03:39.794Z,37.39
2023-06-27T12:04:39.674Z,37.22
2023-06-27T12:05:39.683Z,37.09
2023-06-27T12:06:39.710Z,37.60
2023-06-27T12:07:39.674Z,37.97
2023-06-27T12:08:39.691Z,37.90
2023-06-27T12:09:39.667Z,37.80
2023-06-27T12:10:39.833Z,37.64
2023-06-27T12:11:39.671Z,37.31
2023-06-27T12:12:39.700Z,37.65
2023-06-27T12:13:39.653Z,37.28
2023-06-27T12:14:39.675Z,37.24
2023-06-27T12:15:39.646Z,37.16
2023-06-27T12:16:39.629Z,36.96
2023-06-27T12:17:39.666Z,36.86
2023-06-27T12:18:39.679Z,37.17
2023-06-27T12:19:39.742Z,37.81
2023-06-27T12:20:40.072Z,37.78
2023-06-27T12:21:39.805Z,38.20
2023-06-27T12:22:39.779Z,38.01
2023-06-27T12:23:39.831Z,38.50
2023-06-27T12:24:39.887Z,37.40
2023-06-27T12:25:39.973Z,37.70
2023-06-27T12:26:40.021Z,37.61
2023-06-27T12:27:39.986Z,37.08
2023-06-27T12:28:40.025Z,37.30
2023-06-27T12:29:40.097Z,36.42
2023-06-27T12:30:40.329Z,36.47
2023-06-27T12:31:40.115Z,36.41
2023-06-27T12:32:40.265Z,37.03
2023-06-27T12:33:40.128Z,37.08
2023-06-27T12:34:40.148Z,36.58
2023-06-27T12:35:40.179Z,36.71
2023-06-27T12:36:40.237Z,36.06
2023-06-27T12:37:40.206Z,36.23
2023-06-27T12:38:40.277Z,36.38
2023-06-27T12:39:40.279Z,35.92
2023-06-27T12:40:40.640Z,36.47
2023-06-27T12:41:40.466Z,35.13
2023-06-27T12:42:40.435Z,36.03
2023-06-27T12:43:40.422Z,35.79
2023-06-27T12:44:40.523Z,35.06
2023-06-27T12:45:44.615Z,34.61
2023-06-27T12:46:40.532Z,35.67
2023-06-27T12:47:40.577Z,35.58
2023-06-27T12:48:40.498Z,35.76
2023-06-27T12:49:40.506Z,35.39
2023-06-27T12:50:40.772Z,36.23
2023-06-27T12:51:40.476Z,35.44
2023-06-27T12:52:40.496Z,35.77
2023-06-27T12:53:40.493Z,35.68
2023-06-27T12:54:40.445Z,35.67
2023-06-27T12:55:40.451Z,34.82
2023-06-27T12:56:40.765Z,35.06
2023-06-27T12:57:40.475Z,35.50
2023-06-27T12:58:40.468Z,35.43
2023-06-27T12:59:40.457Z,35.45
2023-06-27T13:00:40.633Z,35.24